Terminal Aerodrome Forecast
Issued by NWS Amarillo, TX

Current Version | Previous Version | Text Only | Print | Product List | Glossary Off
Versions: 1 2 3 4 5 6 7 8 9 10 11 12 13 14 15 16 17 18 19

627
FTUS44 KAMA 201120
TAFDHT
TAF
KDHT 201120Z 2012/2112 26012G22KT 6SM BR SKC
     FM201300 26026G37KT P6SM SCT300
     FM210100 24012KT P6SM SCT300=

USA.gov is the U.S. government's official web portal to all federal, state and local government web resources and services.